Time;durP1;ratioP1;P1;durP2;ratioP2;P2;SDS_P1;SDS_P2;PMS_P1;PMS_P2;Temp;Humidity;BMP_temperature;BMP_pressure;BME280_temperature;BME280_humidity;BME280_pressure;Samples;Min_cycle;Max_cycle;Signal;HPM_P1;HPM_P2
2022/11/01 00:01:12;;;;;;;225.63;43.92;;;;;;;;;;5051630;28;20497;-56
2022/11/01 00:03:38;;;;;;;237.70;46.97;;;;;;;;;;5049392;28;20028;-56
2022/11/01 00:06:05;;;;;;;246.07;45.33;;;;;;;;;;5048674;28;20029;-56
2022/11/01 00:08:30;;;;;;;248.48;45.00;;;307.90;2304.00;;;;;;5049645;28;20025;-55
2022/11/01 00:11:07;;;;;;;278.90;46.00;;;307.70;2304.00;;;;;;5051253;28;20041;-55
2022/11/01 00:13:33;;;;;;;216.05;40.03;;;;;;;;;;5053220;28;20022;-57
2022/11/01 00:15:59;;;;;;;244.57;38.50;;;307.60;2304.00;;;;;;5052603;28;20044;-56
2022/11/01 00:18:25;;;;;;;263.95;38.75;;;307.40;2304.00;;;;;;5050784;28;20371;-55
2022/11/01 00:20:51;;;;;;;330.10;41.30;;;307.60;2304.00;;;;;;5049566;28;20045;-56
2022/11/01 00:23:17;;;;;;;186.98;37.33;;;307.40;2304.00;;;;;;5054083;28;20032;-56
2022/11/01 00:25:42;;;;;;;160.50;36.03;;;307.30;2304.00;;;;;;5051211;28;20021;-55
2022/11/01 00:28:08;;;;;;;184.75;34.80;;;307.20;2304.00;;;;;;5052600;28;20029;-55
2022/11/01 00:30:38;;;;;;;190.45;38.45;;;307.20;2304.00;;;;;;5053233;28;20123;-56
2022/11/01 00:33:03;;;;;;;165.82;35.38;;;307.30;2304.00;;;;;;5053295;28;20071;-56
2022/11/01 00:35:35;;;;;;;313.90;34.55;;;307.40;2304.00;;;;;;5052158;28;20075;-56
2022/11/01 00:38:01;;;;;;;253.25;36.92;;;307.30;2304.00;;;;;;5052772;28;20037;-56
2022/11/01 00:40:27;;;;;;;238.27;36.67;;;307.30;2304.00;;;;;;5053093;28;20052;-55
2022/11/01 00:42:53;;;;;;;253.27;37.75;;;307.30;2304.00;;;;;;5050481;28;20482;-56
2022/11/01 00:45:18;;;;;;;275.05;37.63;;;307.20;2304.00;;;;;;5051343;28;20021;-56
2022/11/01 00:47:47;;;;;;;253.82;37.95;;;307.20;2304.00;;;;;;5052062;28;20025;-55
2022/11/01 00:50:14;;;;;;;217.73;38.30;;;307.20;2304.00;;;;;;5051058;28;20028;-56
2022/11/01 00:52:40;;;;;;;262.52;37.38;;;282.50;2278.40;;;;;;5052789;28;20843;-56
2022/11/01 00:55:06;;;;;;;287.50;38.53;;;282.40;2278.40;;;;;;5052601;28;20486;-56
2022/11/01 00:57:32;;;;;;;297.85;39.50;;;282.40;2278.40;;;;;;5054223;28;20040;-56
2022/11/01 00:59:57;;;;;;;185.52;38.17;;;282.40;2278.40;;;;;;5052504;28;20024;-56
2022/11/01 01:02:23;;;;;;;129.65;34.53;;;282.50;2278.40;;;;;;5050773;28;20132;-56
2022/11/01 01:04:49;;;;;;;165.35;35.83;;;282.40;2278.40;;;;;;5057548;28;20366;-56
2022/11/01 01:07:16;;;;;;;159.20;37.45;;;282.50;2278.40;;;;;;5053856;28;20037;-56
2022/11/01 01:09:42;;;;;;;346.20;42.63;;;307.20;2304.00;;;;;;5055352;28;20045;-56
2022/11/01 01:12:08;;;;;;;269.83;37.05;;;307.20;2304.00;;;;;;5055597;28;20068;-56
2022/11/01 01:14:34;;;;;;;347.17;41.95;;;282.50;2278.40;;;;;;5056570;28;20025;-56
2022/11/01 01:17:00;;;;;;;270.45;38.65;;;282.40;2278.40;;;;;;5053127;28;20049;-56
2022/11/01 01:19:28;;;;;;;333.85;42.42;;;282.40;2278.40;;;;;;5055274;28;20063;-56
2022/11/01 01:21:54;;;;;;;308.67;42.10;;;282.40;2278.40;;;;;;5054802;28;20074;-55
2022/11/01 01:24:20;;;;;;;230.43;41.35;;;282.40;2278.40;;;;;;5055362;28;20017;-56
2022/11/01 01:26:46;;;;;;;383.30;40.40;;;282.40;2278.40;;;;;;5053535;28;20028;-56
2022/11/01 01:29:12;;;;;;;384.80;44.90;;;307.50;2304.00;;;;;;5054573;28;20038;-56
2022/11/01 01:31:37;;;;;;;219.35;41.17;;;282.40;2278.40;;;;;;5053285;28;20239;-56
2022/11/01 01:34:04;;;;;;;237.68;38.28;;;282.40;2278.40;;;;;;5055333;28;20052;-57
2022/11/01 01:36:29;;;;;;;496.13;45.20;;;282.40;2278.40;;;;;;5056303;28;20032;-56
2022/11/01 01:38:55;;;;;;;338.23;40.15;;;282.40;2278.40;;;;;;5057335;28;20017;-56
2022/11/01 01:44:59;;;;;;;186.80;37.03;;;282.40;2278.40;;;;;;5054684;28;20119;-56
2022/11/01 01:47:28;;;;;;;151.20;36.42;;;282.40;2278.40;;;;;;5031041;28;20076;-57
2022/11/01 01:50:20;;;;;;;187.85;36.10;;;282.40;2278.40;;;;;;5032739;28;20494;-56
2022/11/01 01:52:51;;;;;;;130.55;33.75;;;307.20;2304.00;;;;;;5033954;28;20104;-56
2022/11/01 01:55:21;;;;;;;233.07;36.55;;;307.30;2304.00;;;;;;5033025;28;20030;-56
2022/11/01 01:57:47;;;;;;;141.00;36.45;;;307.30;2304.00;;;;;;5033100;28;20037;-56
2022/11/01 02:00:14;;;;;;;182.43;37.22;;;307.40;2304.00;;;;;;5032967;28;20095;-56
2022/11/01 02:02:41;;;;;;;188.55;36.38;;;307.30;2304.00;;;;;;5032143;28;20050;-55
2022/11/01 02:05:10;;;;;;;211.85;36.72;;;307.20;2304.00;;;;;;5032413;28;20021;-56
2022/11/01 02:07:36;;;;;;;226.02;35.00;;;307.20;2304.00;;;;;;5033135;28;20041;-56
2022/11/01 02:10:02;;;;;;;388.77;36.97;;;282.40;2278.40;;;;;;5031408;28;20622;-56
2022/11/01 02:12:34;;;;;;;393.20;38.60;;;282.40;2278.40;;;;;;5031153;28;20101;-56
2022/11/01 02:15:01;;;;;;;263.63;36.30;;;282.30;2278.40;;;;;;5031656;28;20172;-55
2022/11/01 02:17:50;;;;;;;204.73;37.08;;;282.20;2278.40;;;;;;5035523;28;20033;-56
2022/11/01 02:20:21;;;;;;;190.02;34.83;;;282.20;2278.40;;;;;;5031234;28;20522;-56
2022/11/01 02:23:18;;;;;;;226.88;37.22;;;282.40;2278.40;;;;;;5056435;28;20029;-56
2022/11/01 02:26:18;;;;;;;200.45;39.00;;;282.30;2278.40;;;;;;5055194;28;20060;-56
2022/11/01 02:29:07;;;;;;;159.68;37.17;;;282.50;2278.40;;;;;;5031949;28;20033;-56
2022/11/01 02:32:09;;;;;;;183.30;38.72;;;282.50;2278.40;;;;;;4931835;29;20036;-56
2022/11/01 02:34:56;;;;;;;328.10;41.15;;;307.30;2304.00;;;;;;4928487;29;20026;-56
2022/11/01 02:38:01;;;;;;;286.77;44.08;;;307.20;2304.00;;;;;;4933717;29;20035;-56
2022/11/01 02:41:07;;;;;;;245.93;43.70;;;307.20;2304.00;;;;;;4895057;29;20116;-56
2022/11/01 02:43:44;;;;;;;412.55;45.58;;;307.20;2304.00;;;;;;4894413;29;20055;-55
2022/11/01 02:48:56;;;;;;;353.60;47.97;;;282.50;2278.40;;;;;;4896567;29;20040;-56
2022/11/01 02:51:24;;;;;;;485.85;52.97;;;282.40;2278.40;;;;;;4895556;29;20041;-56
2022/11/01 02:53:50;;;;;;;400.48;50.03;;;282.30;2278.40;;;;;;4896638;29;20044;-55
2022/11/01 02:56:17;;;;;;;538.00;52.92;;;282.20;2278.40;;;;;;4896538;29;20033;-56
2022/11/01 02:58:46;;;;;;;540.00;52.08;;;282.20;2278.40;;;;;;4896427;29;20040;-55
2022/11/01 03:01:18;;;;;;;397.80;47.80;;;282.20;2278.40;;;;;;4896174;29;20402;-55
2022/11/01 03:03:47;;;;;;;424.80;47.67;;;282.20;2278.40;;;;;;4895558;29;20024;-56
2022/11/01 03:06:38;;;;;;;672.60;54.30;;;282.30;2278.40;;;;;;4910748;29;20047;-56
2022/11/01 03:09:08;;;;;;;571.83;49.35;;;282.10;2278.40;;;;;;4941657;29;20422;-56
2022/11/01 03:11:59;;;;;;;313.98;41.78;;;282.00;2278.40;;;;;;4939108;29;20045;-57
2022/11/01 03:14:31;;;;;;;312.20;43.25;;;282.10;2278.40;;;;;;4953330;28;20123;-56
2022/11/01 03:17:31;;;;;;;455.13;47.63;;;281.90;2278.40;;;;;;4975003;28;20052;-56
2022/11/01 03:20:46;;;;;;;460.88;46.20;;;281.90;2278.40;;;;;;5051352;28;20032;-55
2022/11/01 03:23:15;;;;;;;385.70;44.85;;;281.90;2278.40;;;;;;5053096;28;20040;-56
2022/11/01 03:25:46;;;;;;;301.52;44.20;;;281.90;2278.40;;;;;;5052380;28;20044;-55
2022/11/01 03:28:14;;;;;;;378.63;46.45;;;281.90;2278.40;;;;;;5062870;28;20530;-57
2022/11/01 03:30:45;;;;;;;467.58;48.35;;;282.00;2278.40;;;;;;5055179;28;20040;-57
2022/11/01 03:33:13;;;;;;;221.40;39.97;;;281.90;2278.40;;;;;;5057959;28;20025;-56
2022/11/01 03:35:43;;;;;;;232.45;37.67;;;282.00;2278.40;;;;;;5055329;28;20033;-56
2022/11/01 03:38:14;;;;;;;243.38;36.63;;;282.10;2278.40;;;;;;5060231;28;20036;-56
2022/11/01 03:40:45;;;;;;;288.63;39.50;;;282.10;2278.40;;;;;;5071395;28;20044;-56
2022/11/01 03:43:14;;;;;;;253.77;37.00;;;281.90;2278.40;;;;;;5058396;28;20131;-56
2022/11/01 03:45:41;;;;;;;418.85;43.03;;;281.90;2278.40;;;;;;5066090;28;20029;-56
2022/11/01 03:48:08;;;;;;;361.42;41.70;;;281.80;2278.40;;;;;;5059027;28;20033;-56
2022/11/01 03:50:34;;;;;;;239.45;37.30;;;281.80;2278.40;;;;;;5056898;28;20070;-56
2022/11/01 03:52:59;;;;;;;391.80;41.90;;;281.90;2278.40;;;;;;5060239;28;20036;-56
2022/11/01 03:55:25;;;;;;;339.23;41.47;;;281.60;2278.40;;;;;;5052911;28;20029;-58
2022/11/01 03:57:56;;;;;;;344.95;40.75;;;281.60;2278.40;;;;;;5057337;28;20028;-57
2022/11/01 04:00:32;;;;;;;371.98;43.80;;;281.60;2278.40;;;;;;5051762;28;20017;-57
2022/11/01 04:02:58;;;;;;;430.30;48.40;;;256.90;2252.80;;;;;;5055887;28;20025;-56
2022/11/01 04:05:26;;;;;;;219.70;39.10;;;281.60;2278.40;;;;;;5053573;28;20020;-55
2022/11/01 04:07:52;;;;;;;231.00;39.22;;;281.70;2278.40;;;;;;5064309;28;20175;-57
2022/11/01 04:10:19;;;;;;;425.83;44.28;;;281.70;2278.40;;;;;;5053774;28;20103;-57
2022/11/01 04:12:47;;;;;;;385.65;43.60;;;281.70;2278.40;;;;;;5064660;28;20021;-57
2022/11/01 04:21:19;;;;;;;276.05;38.88;;;256.90;2252.80;;;;;;5054069;28;20071;-56
2022/11/01 04:23:45;;;;;;;239.18;38.15;;;256.90;2252.80;;;;;;5059628;28;20021;-56
2022/11/01 04:26:13;;;;;;;374.25;41.58;;;256.90;2252.80;;;;;;5058554;28;20382;-56
2022/11/01 04:28:39;;;;;;;179.43;36.28;;;256.90;2252.80;;;;;;5054172;28;20362;-56
2022/11/01 04:31:06;;;;;;;258.10;37.53;;;281.60;2278.40;;;;;;5065027;28;20028;-57
2022/11/01 04:33:32;;;;;;;266.27;36.75;;;281.70;2278.40;;;;;;5052151;28;20023;-56
2022/11/01 04:35:57;;;;;;;205.93;36.70;;;281.90;2278.40;;;;;;5066039;28;20059;-56
2022/11/01 04:38:23;;;;;;;343.98;40.33;;;281.90;2278.40;;;;;;5072167;28;20056;-56
2022/11/01 04:40:49;;;;;;;185.35;34.70;;;281.80;2278.40;;;;;;5059660;28;20040;-56
2022/11/01 04:43:14;;;;;;;187.05;34.70;;;281.80;2278.40;;;;;;5060383;28;20411;-57
2022/11/01 04:45:40;;;;;;;213.70;35.50;;;281.90;2278.40;;;;;;5060395;28;20021;-57
2022/11/01 04:48:07;;;;;;;206.55;34.28;;;281.80;2278.40;;;;;;5052159;28;20029;-57
2022/11/01 04:50:34;;;;;;;332.30;37.80;;;281.70;2278.40;;;;;;5060256;28;20043;-57
2022/11/01 04:53:00;;;;;;;263.02;34.72;;;281.70;2278.40;;;;;;5050576;28;20029;-57
2022/11/01 04:55:27;;;;;;;208.57;36.00;;;281.60;2278.40;;;;;;5058437;28;20100;-56
2022/11/01 04:57:53;;;;;;;222.70;35.88;;;256.90;2252.80;;;;;;5073319;28;20025;-57
2022/11/01 05:00:19;;;;;;;343.90;40.35;;;256.90;2252.80;;;;;;5063234;28;20028;-58
2022/11/01 05:02:45;;;;;;;276.70;37.13;;;256.90;2252.80;;;;;;5067002;28;20029;-57
2022/11/01 05:05:11;;;;;;;155.30;35.22;;;281.60;2278.40;;;;;;5064059;28;20056;-57
2022/11/01 05:07:37;;;;;;;200.15;37.80;;;281.70;2278.40;;;;;;5055523;28;20025;-57
2022/11/01 05:10:03;;;;;;;232.35;38.53;;;281.70;2278.40;;;;;;5061274;28;20016;-56
2022/11/01 05:12:29;;;;;;;238.07;36.05;;;281.70;2278.40;;;;;;5053295;28;20486;-57
2022/11/01 05:14:55;;;;;;;232.38;35.55;;;281.60;2278.40;;;;;;5064278;28;20111;-57
2022/11/01 05:17:21;;;;;;;222.40;34.67;;;281.60;2278.40;;;;;;5053208;28;20489;-57
2022/11/01 05:19:47;;;;;;;231.32;31.75;;;281.60;2278.40;;;;;;5063731;28;20032;-57
2022/11/01 05:22:13;;;;;;;276.30;33.63;;;281.60;2278.40;;;;;;5053075;28;20041;-56
2022/11/01 05:24:39;;;;;;;223.80;34.90;;;256.90;2252.80;;;;;;5063518;28;20344;-57
2022/11/01 05:27:04;;;;;;;195.38;34.03;;;281.60;2278.40;;;;;;5052006;28;20067;-57
2022/11/01 05:29:30;;;;;;;216.25;32.83;;;281.60;2278.40;;;;;;5063615;28;20029;-57
2022/11/01 05:31:56;;;;;;;150.82;31.65;;;281.60;2278.40;;;;;;5053261;28;20100;-57
2022/11/01 05:34:21;;;;;;;215.68;33.65;;;281.70;2278.40;;;;;;5063196;28;20028;-56
2022/11/01 05:36:47;;;;;;;169.93;31.10;;;281.70;2278.40;;;;;;5052726;28;20471;-57
2022/11/01 05:39:13;;;;;;;172.60;32.40;;;281.70;2278.40;;;;;;5064352;28;20108;-57
2022/11/01 05:41:41;;;;;;;257.45;37.17;;;281.70;2278.40;;;;;;5071608;28;20143;-57
2022/11/01 05:44:07;;;;;;;256.35;35.65;;;281.70;2278.40;;;;;;5054983;28;20104;-57
2022/11/01 05:46:33;;;;;;;277.73;35.88;;;281.60;2278.40;;;;;;5051120;28;20120;-57
2022/11/01 05:48:59;;;;;;;236.30;36.40;;;281.60;2278.40;;;;;;5055553;28;20021;-58
2022/11/01 05:51:24;;;;;;;236.50;36.08;;;281.60;2278.40;;;;;;5061074;28;20108;-57
2022/11/01 05:53:50;;;;;;;283.83;37.28;;;256.90;2252.80;;;;;;5057308;28;20017;-57
2022/11/01 05:56:17;;;;;;;224.82;38.33;;;281.60;2278.40;;;;;;5056724;28;20029;-57
2022/11/01 05:58:43;;;;;;;161.38;33.72;;;281.60;2278.40;;;;;;5070153;28;20028;-57
2022/11/01 06:01:09;;;;;;;148.43;32.78;;;281.60;2278.40;;;;;;5062941;28;20036;-56
2022/11/01 06:03:35;;;;;;;243.43;31.75;;;281.70;2278.40;;;;;;5055597;28;20058;-57
2022/11/01 06:06:01;;;;;;;150.15;28.90;;;281.70;2278.40;;;;;;5052806;28;20017;-57
2022/11/01 06:08:28;;;;;;;132.05;25.90;;;281.70;2278.40;;;;;;5055516;28;20033;-57
2022/11/01 06:11:01;;;;;;;198.18;28.33;;;281.60;2278.40;;;;;;5042917;28;20029;-57
2022/11/01 06:13:27;;;;;;;179.32;29.77;;;256.90;2252.80;;;;;;5048980;28;20171;-58
2022/11/01 06:16:04;;;;;;;166.98;29.30;;;281.60;2278.40;;;;;;5059215;28;20060;-57
2022/11/01 06:18:30;;;;;;;174.98;29.20;;;281.70;2278.40;;;;;;5055233;28;20067;-58
2022/11/01 06:20:56;;;;;;;150.13;28.40;;;281.70;2278.40;;;;;;5067318;28;20048;-56
2022/11/01 06:23:22;;;;;;;154.07;26.67;;;281.70;2278.40;;;;;;5053599;28;20474;-58
2022/11/01 06:25:48;;;;;;;92.80;25.83;;;281.60;2278.40;;;;;;5055452;28;20083;-58
2022/11/01 06:28:14;;;;;;;123.88;25.95;;;281.70;2278.40;;;;;;5054980;28;20025;-57
2022/11/01 06:30:42;;;;;;;72.93;22.85;;;281.90;2278.40;;;;;;5053658;28;20031;-56
2022/11/01 06:33:09;;;;;;;179.30;24.73;;;282.00;2278.40;;;;;;5056651;28;20120;-57
2022/11/01 06:35:35;;;;;;;123.57;24.25;;;282.10;2278.40;;;;;;5047977;28;20029;-56
2022/11/01 06:38:05;;;;;;;104.60;23.55;;;282.00;2278.40;;;;;;5062118;28;20033;-57
2022/11/01 06:40:32;;;;;;;101.13;23.15;;;281.90;2278.40;;;;;;5055056;28;20047;-57
2022/11/01 06:43:00;;;;;;;68.70;23.08;;;281.90;2278.40;;;;;;5055301;28;20394;-58
2022/11/01 06:45:26;;;;;;;103.85;23.55;;;281.80;2278.40;;;;;;5052355;28;20474;-57
2022/11/01 06:47:51;;;;;;;88.35;22.23;;;281.90;2278.40;;;;;;5056877;28;20029;-58
2022/11/01 06:50:17;;;;;;;165.68;27.75;;;281.90;2278.40;;;;;;5044318;28;20035;-58
2022/11/01 06:52:43;;;;;;;180.07;25.40;;;281.90;2278.40;;;;;;5053183;28;20021;-58
2022/11/01 06:55:08;;;;;;;138.25;23.63;;;281.90;2278.40;;;;;;5060533;28;20028;-58
2022/11/01 06:57:34;;;;;;;124.22;23.00;;;282.00;2278.40;;;;;;5057748;28;20475;-57
2022/11/01 07:00:00;;;;;;;202.32;35.45;;;281.90;2278.40;;;;;;5058421;28;20482;-57
2022/11/01 07:02:25;;;;;;;159.18;25.23;;;282.00;2278.40;;;;;;5061080;28;20055;-58
2022/11/01 07:04:51;;;;;;;157.13;24.40;;;282.00;2278.40;;;;;;5058140;28;20020;-57
2022/11/01 07:07:16;;;;;;;126.07;24.02;;;282.10;2278.40;;;;;;5066708;28;20024;-57
2022/11/01 07:09:42;;;;;;;102.30;22.38;;;282.20;2278.40;;;;;;5068519;28;20016;-58
2022/11/01 07:12:08;;;;;;;100.90;23.63;;;282.30;2278.40;;;;;;5062256;28;20033;-57
2022/11/01 07:14:33;;;;;;;158.30;24.92;;;282.40;2278.40;;;;;;5058516;28;20021;-57
2022/11/01 07:16:59;;;;;;;128.32;27.33;;;282.40;2278.40;;;;;;5060673;28;20060;-57
2022/11/01 07:19:25;;;;;;;99.80;28.10;;;282.40;2278.40;;;;;;5058012;28;20052;-57
2022/11/01 07:21:50;;;;;;;87.53;23.75;;;282.50;2278.40;;;;;;5060780;28;20052;-58
2022/11/01 07:24:16;;;;;;;94.88;24.05;;;307.20;2304.00;;;;;;5055576;28;20016;-57
2022/11/01 07:26:42;;;;;;;97.30;25.27;;;307.20;2304.00;;;;;;5053914;28;20071;-58
2022/11/01 07:29:07;;;;;;;101.68;33.17;;;307.30;2304.00;;;;;;5036766;28;20075;-57
2022/11/01 07:31:33;;;;;;;161.52;36.33;;;307.30;2304.00;;;;;;5050473;28;20124;-57
2022/11/01 07:33:59;;;;;;;95.18;29.50;;;307.20;2304.00;;;;;;5053758;28;20434;-57
2022/11/01 07:36:25;;;;;;;193.43;59.83;;;307.30;2304.00;;;;;;5054094;28;20111;-58
2022/11/01 07:38:50;;;;;;;153.05;30.92;;;282.40;2278.40;;;;;;5053830;28;20374;-57
2022/11/01 07:41:16;;;;;;;204.30;28.33;;;307.30;2304.00;;;;;;5056075;28;20429;-58
2022/11/01 07:43:41;;;;;;;100.25;26.05;;;307.20;2304.00;;;;;;5055690;28;20417;-57
2022/11/01 07:46:07;;;;;;;219.30;30.42;;;307.20;2304.00;;;;;;5056788;28;20423;-58
2022/11/01 07:48:35;;;;;;;80.40;26.45;;;307.20;2304.00;;;;;;5053373;28;20462;-57
2022/11/01 07:51:04;;;;;;;79.95;28.85;;;307.30;2304.00;;;;;;5056106;28;20071;-58
2022/11/01 07:53:30;;;;;;;92.75;25.67;;;307.40;2304.00;;;;;;5053425;28;20032;-57
2022/11/01 07:55:58;;;;;;;127.28;25.67;;;307.40;2304.00;;;;;;5054832;28;20020;-58
2022/11/01 07:58:24;;;;;;;74.22;27.48;;;307.40;2304.00;;;;;;5053989;28;20079;-57
2022/11/01 08:00:49;;;;;;;76.93;32.10;;;307.60;2304.00;;;;;;5055620;28;20059;-57
2022/11/01 08:03:18;;;;;;;104.55;32.13;;;307.50;2304.00;;;;;;5058408;28;20032;-57
2022/11/01 08:05:44;;;;;;;129.27;44.40;;;308.00;2304.00;;;;;;5057311;28;20032;-57
2022/11/01 08:08:11;;;;;;;91.30;30.38;;;307.70;2304.00;;;;;;5036234;28;20034;-57
2022/11/01 08:10:37;;;;;;;124.10;26.17;;;307.80;2304.00;;;;;;5033527;28;20022;-57
2022/11/01 08:13:18;;;;;;;159.85;26.90;;;307.80;2304.00;;;;;;5047218;28;20037;-56
2022/11/01 08:15:45;;;;;;;112.30;25.98;;;307.80;2304.00;;;;;;5034422;28;20030;-57
2022/11/01 08:18:11;;;;;;;114.82;42.50;;;307.70;2304.00;;;;;;5033643;28;20112;-57
2022/11/01 08:20:37;;;;;;;97.97;31.52;;;307.80;2304.00;;;;;;5031972;28;20137;-57
2022/11/01 08:23:03;;;;;;;107.38;30.73;;;307.90;2304.00;;;;;;5033436;28;20052;-56
2022/11/01 08:25:29;;;;;;;153.20;39.45;;;308.00;2304.00;;;;;;5033264;28;20025;-56
2022/11/01 08:27:59;;;;;;;150.57;46.63;;;307.80;2304.00;;;;;;5046009;28;20031;-56
2022/11/01 08:30:24;;;;;;;113.82;32.15;;;307.90;2304.00;;;;;;5051292;28;20475;-57
2022/11/01 08:32:57;;;;;;;126.22;36.15;;;308.00;2304.00;;;;;;5032352;28;20048;-57
2022/11/01 08:35:23;;;;;;;88.40;31.95;;;333.00;2329.60;;;;;;5035125;28;20029;-56
2022/11/01 08:37:50;;;;;;;180.68;42.92;;;332.90;2329.60;;;;;;5052656;28;20485;-57
2022/11/01 08:40:16;;;;;;;102.63;38.78;;;332.80;2329.60;;;;;;5049768;28;20029;-56
2022/11/01 08:42:42;;;;;;;152.05;44.38;;;332.80;2329.60;;;;;;5035872;28;20442;-57
2022/11/01 08:45:08;;;;;;;79.53;35.85;;;333.00;2329.60;;;;;;5050163;28;20029;-57
2022/11/01 08:47:34;;;;;;;110.55;45.83;;;332.90;2329.60;;;;;;5056947;28;20029;-57
2022/11/01 08:50:00;;;;;;;82.30;36.10;;;333.00;2329.60;;;;;;5066987;28;20025;-58
2022/11/01 08:52:26;;;;;;;88.88;38.05;;;;;;;;;;5056838;28;20040;-57
2022/11/01 08:54:52;;;;;;;89.95;34.35;;;333.30;2329.60;;;;;;5053977;28;20071;-57
2022/11/01 08:57:18;;;;;;;80.32;34.63;;;;;;;;;;5053219;28;20029;-57
2022/11/01 08:59:44;;;;;;;96.07;32.88;;;333.50;2329.60;;;;;;5055492;28;20100;-57
2022/11/01 09:02:10;;;;;;;70.68;33.75;;;333.40;2329.60;;;;;;5061553;28;20171;-56
2022/11/01 09:04:36;;;;;;;104.05;43.08;;;333.50;2329.60;;;;;;5052970;28;20021;-57
2022/11/01 09:07:02;;;;;;;139.65;34.45;;;333.30;2329.60;;;;;;5053067;28;20025;-57
2022/11/01 09:09:28;;;;;;;72.15;34.05;;;333.30;2329.60;;;;;;5052855;28;20032;-57
2022/11/01 09:11:55;;;;;;;91.13;43.70;;;333.40;2329.60;;;;;;5053078;28;20025;-57
2022/11/01 09:14:23;;;;;;;127.18;46.33;;;333.50;2329.60;;;;;;5060696;28;20031;-57
2022/11/01 09:16:49;;;;;;;74.13;36.50;;;358.40;2329.60;;;;;;5056039;28;20102;-57
2022/11/01 09:19:15;;;;;;;77.82;41.13;;;358.40;2329.60;;;;;;5063207;28;20366;-57
2022/11/01 09:21:45;;;;;;;74.65;36.25;;;358.70;2329.60;;;;;;5057289;28;20484;-57
2022/11/01 09:24:12;;;;;;;78.60;38.20;;;358.50;2329.60;;;;;;5062706;28;20025;-57
2022/11/01 09:26:38;;;;;;;74.60;36.53;;;358.50;2329.60;;;;;;5062321;28;20024;-57
2022/11/01 09:29:04;;;;;;;78.13;40.85;;;358.50;2329.60;;;;;;5070244;28;20070;-57
2022/11/01 09:31:32;;;;;;;68.15;36.80;;;358.90;2329.60;;;;;;5060785;28;20028;-58
2022/11/01 09:33:59;;;;;;;73.25;37.63;;;358.80;2329.60;;;;;;5063787;28;20032;-57
2022/11/01 09:36:26;;;;;;;81.05;41.33;;;358.60;2329.60;;;;;;5053470;28;20378;-57
2022/11/01 09:38:53;;;;;;;75.38;39.85;;;358.70;2329.60;;;;;;5054470;28;20021;-57
2022/11/01 09:41:37;;;;;;;77.68;38.38;;;358.70;2329.60;;;;;;5054696;28;20401;-58
2022/11/01 09:44:06;;;;;;;76.22;36.58;;;358.70;2329.60;;;;;;5055567;28;20025;-57
2022/11/01 09:46:43;;;;;;;76.32;42.72;;;358.80;2329.60;;;;;;5051962;28;20151;-58
2022/11/01 09:49:17;;;;;;;75.55;36.08;;;358.70;2329.60;;;;;;5050449;28;20131;-57
2022/11/01 09:51:42;;;;;;;92.65;50.40;;;358.80;2329.60;;;;;;5049545;28;20025;-57
2022/11/01 09:54:09;;;;;;;72.22;37.22;;;358.60;2329.60;;;;;;5035402;28;20098;-57
2022/11/01 09:56:43;;;;;;;72.13;37.42;;;358.70;2329.60;;;;;;5034878;28;20046;-58
2022/11/01 09:59:18;;;;;;;66.57;37.08;;;358.80;2329.60;;;;;;5035692;28;20018;-58
2022/11/01 10:01:44;;;;;;;;;;;384.20;2329.60;;;;;;5035108;28;20061;-58
2022/11/01 10:04:37;;;;;;;76.63;44.25;;;359.20;2329.60;;;;;;5035541;28;19905;-57
2022/11/01 10:07:20;;;;;;;68.90;38.95;;;384.30;2329.60;;;;;;5035015;28;20094;-58
2022/11/01 10:09:58;;;;;;;75.10;42.45;;;384.30;2329.60;;;;;;5034828;28;20037;-58
2022/11/01 10:12:39;;;;;;;60.75;35.22;;;;;;;;;;5035169;28;20378;-57
2022/11/01 10:15:20;;;;;;;59.75;36.50;;;409.80;2355.20;;;;;;5034878;28;20033;-58
2022/11/01 10:17:53;;;;;;;57.22;33.67;;;410.10;2355.20;;;;;;5034475;28;20021;-56
2022/11/01 10:20:25;;;;;;;73.80;44.00;;;409.90;2355.20;;;;;;5046901;28;20548;-58
2022/11/01 10:22:51;;;;;;;68.65;40.40;;;409.90;2355.20;;;;;;5054807;28;20047;-57
2022/11/01 10:25:21;;;;;;;66.85;39.28;;;409.90;2355.20;;;;;;5038812;28;20030;-58
2022/11/01 10:28:02;;;;;;;88.90;48.47;;;409.80;2355.20;;;;;;5034434;28;20034;-58
2022/11/01 10:30:35;;;;;;;64.97;39.63;;;410.00;2355.20;;;;;;5034465;28;20494;-58
2022/11/01 10:33:11;;;;;;;62.92;38.35;;;409.90;2355.20;;;;;;5034647;28;20104;-57
2022/11/01 10:35:42;;;;;;;60.20;36.08;;;410.10;2355.20;;;;;;5034690;28;20451;-56
2022/11/01 10:38:16;;;;;;;55.92;34.75;;;461.00;2380.80;;;;;;5064404;28;20410;-58
2022/11/01 10:41:02;;;;;;;57.70;36.30;;;486.50;2380.80;;;;;;5043416;28;20041;-58
2022/11/01 10:43:31;;;;;;;59.60;37.35;;;486.40;2380.80;;;;;;5048823;28;20075;-58
2022/11/01 10:46:00;;;;;;;69.97;43.60;;;512.10;2380.80;;;;;;5054466;28;20070;-57
2022/11/01 10:48:25;;;;;;;65.35;42.33;;;487.00;2380.80;;;;;;5052399;28;20495;-57
2022/11/01 10:50:52;;;;;;;65.70;42.47;;;;;;;;;;5053825;28;20048;-58
2022/11/01 10:53:19;;;;;;;57.50;35.83;;;537.90;2406.40;;;;;;5052623;28;20437;-57
2022/11/01 10:55:50;;;;;;;54.13;34.88;;;;;;;;;;5053686;28;20146;-58
2022/11/01 10:58:40;;;;;;;49.08;32.80;;;588.90;2432.00;;;;;;5052572;28;20032;-57
2022/11/01 11:01:08;;;;;;;46.22;33.08;;;;;;;;;;5050836;28;20403;-57
2022/11/01 11:03:36;;;;;;;44.92;31.65;;;615.30;2406.40;;;;;;5049899;28;20025;-57
2022/11/01 11:06:07;;;;;;;55.42;42.13;;;666.20;2176.00;;;;;;5052820;28;20018;-58
2022/11/01 11:08:37;;;;;;;45.97;36.63;;;716.80;2124.80;;;;;;5048605;28;20507;-58
2022/11/01 11:11:08;;;;;;;46.53;35.88;;;742.40;1817.60;;;;;;5052757;28;20502;-58
2022/11/01 11:13:34;;;;;;;40.22;31.02;;;743.20;1740.80;;;;;;5049675;28;20120;-58
2022/11/01 11:16:05;;;;;;;46.17;35.85;;;768.30;1612.80;;;;;;5053184;28;20162;-59
2022/11/01 11:18:41;;;;;;;40.30;32.45;;;768.00;1612.80;;;;;;5038417;28;20038;-59
2022/11/01 11:21:10;;;;;;;43.97;33.45;;;793.60;1536.00;;;;;;5052836;28;20215;-59
2022/11/01 11:23:44;;;;;;;37.13;29.05;;;793.70;1510.40;;;;;;5051072;28;20037;-59
2022/11/01 11:26:15;;;;;;;;;;;794.20;1459.20;;;;;;5052375;28;20029;-59
2022/11/01 11:28:48;;;;;;;59.35;49.13;;;819.70;1408.00;;;;;;5034471;28;19988;-59
2022/11/01 11:31:30;;;;;;;42.30;33.50;;;845.10;1331.20;;;;;;5045399;28;20024;-59
2022/11/01 11:33:59;;;;;;;44.35;35.95;;;845.40;1280.00;;;;;;5050016;28;20076;-59
2022/11/01 11:36:33;;;;;;;43.78;32.53;;;870.40;1280.00;;;;;;5052411;28;20024;-60
2022/11/01 11:38:59;;;;;;;42.22;35.17;;;870.40;1254.40;;;;;;5047042;28;20525;-60
2022/11/01 11:41:35;;;;;;;40.05;33.03;;;870.80;1228.80;;;;;;5051488;28;20051;-58
2022/11/01 11:44:02;;;;;;;38.63;33.25;;;870.80;1228.80;;;;;;5049889;28;20098;-59
2022/11/01 11:46:28;;;;;;;46.63;38.67;;;896.40;1126.40;;;;;;5047171;28;20109;-59
2022/11/01 11:49:05;;;;;;;48.13;36.33;;;896.30;1100.80;;;;;;5048487;28;20111;-59
2022/11/01 11:51:39;;;;;;;39.00;33.75;;;896.60;1152.00;;;;;;5049466;28;20355;-60
2022/11/01 11:54:18;;;;;;;34.92;28.80;;;921.60;1126.40;;;;;;5050753;28;20049;-61
2022/11/01 11:56:45;;;;;;;32.85;28.40;;;896.70;1126.40;;;;;;5049754;28;20029;-59
2022/11/01 11:59:24;;;;;;;34.58;29.90;;;922.00;1100.80;;;;;;5049105;28;20033;-59
2022/11/01 12:02:00;;;;;;;35.50;30.25;;;921.90;1100.80;;;;;;5048240;28;20056;-58
2022/11/01 12:04:48;;;;;;;38.35;29.42;;;947.40;1049.60;;;;;;5049649;28;20037;-58
2022/11/01 12:07:50;;;;;;;39.25;33.92;;;922.40;1049.60;;;;;;5035887;28;20095;-58
2022/11/01 12:10:45;;;;;;;44.45;35.70;;;921.90;1075.20;;;;;;5039794;28;20058;-59
2022/11/01 12:13:36;;;;;;;36.08;31.00;;;922.20;1049.60;;;;;;5034137;28;20056;-60
2022/11/01 12:16:23;;;;;;;35.67;29.55;;;922.30;1049.60;;;;;;4976989;28;20034;-58
2022/11/01 12:19:00;;;;;;;41.05;33.83;;;922.20;1049.60;;;;;;4989789;28;20034;-59
2022/11/01 12:21:32;;;;;;;37.30;31.70;;;896.70;1049.60;;;;;;4982694;28;20165;-59
2022/11/01 12:24:05;;;;;;;38.53;31.27;;;921.70;1075.20;;;;;;4986625;28;20541;-60